Time;durP1;ratioP1;P1;durP2;ratioP2;P2;SDS_P1;SDS_P2;PMS_P1;PMS_P2;Temp;Humidity;BMP_temperature;BMP_pressure;BME280_temperature;BME280_humidity;BME280_pressure;Samples;Min_cycle;Max_cycle;Signal;HPM_P1;HPM_P2
2023/01/15 00:00:11;;;;;;;13.50;2.47;;;7.00;99.90;;;;;;4197314;28;20043;-84
2023/01/15 00:02:15;;;;;;;4.72;0.70;;;6.40;99.90;;;;;;4185039;28;20132;-84
2023/01/15 00:04:17;;;;;;;9.82;0.90;;;6.60;99.90;;;;;;4202829;28;20044;-84
2023/01/15 00:06:18;;;;;;;7.95;1.67;;;6.90;99.90;;;;;;4201272;28;20451;-84
2023/01/15 00:08:19;;;;;;;7.35;0.88;;;6.50;99.90;;;;;;4201729;28;20052;-84
2023/01/15 00:10:19;;;;;;;7.07;1.10;;;6.40;99.90;;;;;;4202066;28;20088;-84
2023/01/15 00:12:20;;;;;;;5.10;0.98;;;6.60;99.90;;;;;;4202016;28;20051;-84
2023/01/15 00:14:22;;;;;;;19.63;1.25;;;6.60;99.90;;;;;;4201744;28;20041;-84
2023/01/15 00:16:24;;;;;;;7.85;2.30;;;6.90;99.90;;;;;;4201686;28;20078;-84
2023/01/15 00:18:25;;;;;;;5.28;1.00;;;6.50;99.90;;;;;;4203187;28;20440;-84
2023/01/15 00:20:27;;;;;;;9.93;1.38;;;7.50;99.90;;;;;;4185248;28;20051;-84
2023/01/15 00:22:28;;;;;;;5.90;1.17;;;6.90;99.90;;;;;;4201659;28;20055;-84
2023/01/15 00:29:09;;;;;;;6.40;1.52;;;6.40;99.90;;;;;;4202556;28;20179;-83
2023/01/15 00:31:13;;;;;;;10.43;1.52;;;7.20;99.90;;;;;;4203569;28;20108;-84
2023/01/15 00:33:14;;;;;;;4.50;1.13;;;6.40;99.90;;;;;;4188608;28;20474;-84
2023/01/15 00:35:17;;;;;;;8.93;1.80;;;6.80;99.90;;;;;;4184883;28;20098;-84
2023/01/15 00:37:18;;;;;;;9.23;1.15;;;6.40;99.90;;;;;;4184874;28;20445;-84
2023/01/15 00:39:20;;;;;;;8.68;0.80;;;6.40;99.90;;;;;;4184655;28;20144;-84
2023/01/15 00:41:20;;;;;;;8.60;0.95;;;6.40;99.90;;;;;;4168464;28;20115;-84
2023/01/15 00:43:21;;;;;;;4.43;0.82;;;7.60;99.90;;;;;;4184714;28;20044;-84
2023/01/15 00:45:22;;;;;;;3.78;0.75;;;7.50;99.90;;;;;;4186207;28;20088;-84
2023/01/15 00:47:22;;;;;;;10.60;1.30;;;6.40;99.90;;;;;;4186024;28;20048;-84
2023/01/15 00:49:23;;;;;;;13.30;1.65;;;6.40;99.90;;;;;;4170373;28;20060;-84
2023/01/15 00:51:24;;;;;;;13.35;2.30;;;7.50;99.90;;;;;;4201979;28;20051;-84
2023/01/15 00:53:24;;;;;;;6.28;1.73;;;6.30;99.90;;;;;;4203810;28;20106;-84
2023/01/15 00:55:25;;;;;;;6.90;1.20;;;6.60;99.90;;;;;;4202419;28;20220;-84
2023/01/15 00:57:27;;;;;;;7.57;1.00;;;7.30;99.90;;;;;;4204354;28;20198;-84
2023/01/15 00:59:28;;;;;;;9.07;2.63;;;7.10;99.90;;;;;;4186907;28;20076;-84
2023/01/15 01:01:31;;;;;;;5.25;0.95;;;6.40;99.90;;;;;;4202330;28;20056;-85
2023/01/15 01:03:31;;;;;;;8.35;1.50;;;6.40;99.90;;;;;;4184958;28;20501;-84
2023/01/15 01:05:32;;;;;;;4.78;1.08;;;6.80;99.90;;;;;;4202110;28;20044;-84
2023/01/15 01:07:34;;;;;;;10.23;1.00;;;7.30;99.90;;;;;;4202289;28;20052;-84
2023/01/15 01:09:34;;;;;;;9.02;1.17;;;7.00;99.90;;;;;;4200036;28;20041;-84
2023/01/15 01:11:36;;;;;;;8.43;1.20;;;6.50;99.90;;;;;;4168116;28;20045;-84
2023/01/15 01:13:38;;;;;;;13.25;1.40;;;7.40;99.90;;;;;;4181715;28;20055;-84
2023/01/15 01:15:38;;;;;;;12.00;1.75;;;6.70;99.90;;;;;;4181927;28;20064;-84
2023/01/15 01:17:39;;;;;;;8.48;1.13;;;6.40;99.90;;;;;;4181274;28;20417;-84
2023/01/15 01:19:40;;;;;;;5.90;1.10;;;6.80;99.90;;;;;;4183592;28;20516;-85
2023/01/15 01:21:42;;;;;;;9.10;1.10;;;6.40;99.90;;;;;;4183266;28;20146;-84
2023/01/15 01:23:43;;;;;;;8.90;1.65;;;6.40;99.90;;;;;;4186513;28;20119;-85
2023/01/15 01:25:44;;;;;;;6.35;1.23;;;7.30;99.90;;;;;;4182804;28;20468;-84
2023/01/15 01:27:45;;;;;;;9.45;1.10;;;6.30;99.90;;;;;;4199807;28;20127;-84
2023/01/15 01:29:46;;;;;;;6.80;2.17;;;6.30;99.90;;;;;;4181974;28;20509;-84
2023/01/15 01:31:49;;;;;;;11.25;1.58;;;6.30;99.90;;;;;;4197974;28;20052;-84
2023/01/15 01:33:54;;;;;;;13.38;1.20;;;6.30;99.90;;;;;;4199876;28;20044;-84
2023/01/15 01:35:55;;;;;;;8.90;1.05;;;6.90;99.90;;;;;;4198323;28;20053;-84
2023/01/15 01:37:56;;;;;;;11.18;1.17;;;6.30;99.90;;;;;;4182060;28;20405;-84
2023/01/15 01:39:57;;;;;;;11.05;1.08;;;6.20;99.90;;;;;;4198214;28;20040;-84
2023/01/15 01:41:58;;;;;;;7.95;1.25;;;6.90;99.90;;;;;;4197844;28;20036;-84
2023/01/15 01:44:08;;;;;;;8.98;1.20;;;7.40;99.90;;;;;;4198148;28;20523;-84
2023/01/15 01:46:08;;;;;;;15.38;1.52;;;6.30;99.90;;;;;;4198036;28;20053;-84
2023/01/15 01:48:09;;;;;;;9.18;1.60;;;7.00;99.90;;;;;;4198368;28;20040;-84
2023/01/15 01:50:12;;;;;;;5.97;1.75;;;7.20;99.90;;;;;;4199399;28;20040;-84
2023/01/15 01:52:19;;;;;;;6.45;1.13;;;6.50;99.90;;;;;;4199609;28;20080;-84
2023/01/15 01:54:23;;;;;;;7.05;1.00;;;7.20;99.90;;;;;;4198915;28;20048;-84
2023/01/15 01:56:25;;;;;;;11.85;2.00;;;6.30;99.90;;;;;;4181783;28;20045;-85
2023/01/15 01:58:29;;;;;;;8.45;1.08;;;7.10;99.90;;;;;;4199465;28;20037;-84
2023/01/15 02:00:33;;;;;;;6.90;1.15;;;6.30;99.90;;;;;;4199397;28;20044;-84
2023/01/15 02:02:34;;;;;;;3.78;0.80;;;6.80;99.90;;;;;;4198549;28;20055;-84
2023/01/15 02:04:37;;;;;;;5.75;1.05;;;7.10;99.90;;;;;;4198367;28;20080;-84
2023/01/15 02:06:41;;;;;;;7.03;1.55;;;6.40;99.90;;;;;;4198861;28;20051;-84
2023/01/15 02:08:42;;;;;;;12.20;1.23;;;6.40;99.90;;;;;;4198613;28;20401;-84
2023/01/15 02:10:44;;;;;;;7.95;1.73;;;6.40;99.90;;;;;;4197346;28;20048;-84
2023/01/15 02:12:58;;;;;;;6.70;1.23;;;6.60;99.90;;;;;;4199061;28;20393;-84
2023/01/15 02:15:04;;;;;;;14.00;1.35;;;6.30;99.90;;;;;;4197527;28;20593;-84
2023/01/15 02:17:19;;;;;;;13.93;2.70;;;6.30;99.90;;;;;;4197576;28;20068;-83
2023/01/15 02:19:38;;;;;;;5.00;0.90;;;6.50;99.90;;;;;;4200083;28;20055;-83
2023/01/15 02:21:45;;;;;;;;;;;6.90;99.90;;;;;;4199374;28;20037;-83
2023/01/15 02:24:44;;;;;;;9.25;2.08;;;6.30;99.90;;;;;;4198348;28;20388;-83
2023/01/15 02:26:51;;;;;;;8.25;1.27;;;6.30;99.90;;;;;;4164177;28;20065;-83
2023/01/15 02:28:55;;;;;;;4.68;0.80;;;6.30;99.90;;;;;;4186362;28;20528;-83
2023/01/15 02:31:32;;;;;;;6.15;1.08;;;6.30;99.90;;;;;;4197568;28;20485;-83
2023/01/15 02:33:37;;;;;;;11.90;1.55;;;6.30;99.90;;;;;;4189798;28;20049;-83
2023/01/15 02:35:46;;;;;;;8.38;1.65;;;6.30;99.90;;;;;;4198767;28;20040;-83
2023/01/15 02:37:54;;;;;;;;;;;6.20;99.90;;;;;;4198812;28;20052;-83
2023/01/15 02:39:58;;;;;;;6.00;2.10;;;6.20;99.90;;;;;;4198557;28;19920;-83
2023/01/15 02:42:01;;;;;;;9.25;1.25;;;6.70;99.90;;;;;;4199040;28;20512;-83
2023/01/15 02:44:05;;;;;;;5.55;1.02;;;6.60;99.90;;;;;;4198600;28;20044;-83
2023/01/15 02:46:08;;;;;;;8.50;2.20;;;6.30;99.90;;;;;;4198956;28;20051;-83
2023/01/15 02:48:16;;;;;;;12.55;1.55;;;6.30;99.90;;;;;;4198181;28;20131;-83
2023/01/15 02:50:23;;;;;;;6.93;1.27;;;6.30;99.90;;;;;;4198438;28;20121;-83
2023/01/15 02:52:32;;;;;;;12.30;2.95;;;6.30;99.90;;;;;;4198818;28;20412;-83
2023/01/15 02:54:42;;;;;;;5.47;1.60;;;6.40;99.90;;;;;;4198224;28;20052;-83
2023/01/15 02:56:45;;;;;;;8.20;1.42;;;6.40;99.90;;;;;;4198436;28;20052;-83
2023/01/15 02:58:48;;;;;;;13.10;2.10;;;6.30;99.90;;;;;;4198261;28;20515;-83
2023/01/15 03:00:53;;;;;;;11.15;1.55;;;6.30;99.90;;;;;;4198681;28;20059;-83
2023/01/15 03:03:17;;;;;;;8.70;1.08;;;6.30;99.90;;;;;;4198556;28;20047;-83
2023/01/15 03:05:30;;;;;;;10.70;1.50;;;6.30;99.90;;;;;;4197273;28;20520;-83
2023/01/15 03:07:39;;;;;;;10.40;1.70;;;6.20;99.90;;;;;;4197601;28;20045;-83
2023/01/15 03:09:40;;;;;;;10.13;1.20;;;6.20;99.90;;;;;;4198358;28;20123;-83
2023/01/15 03:11:53;;;;;;;5.00;0.90;;;6.90;99.90;;;;;;4189972;28;20051;-83
2023/01/15 03:14:01;;;;;;;14.77;2.70;;;6.40;99.90;;;;;;4197739;28;20053;-82
2023/01/15 03:16:38;;;;;;;5.93;1.00;;;6.20;99.90;;;;;;4198284;28;20040;-83
2023/01/15 03:19:08;;;;;;;9.95;1.92;;;6.20;99.90;;;;;;4197600;28;20048;-83
2023/01/15 03:21:12;;;;;;;6.18;1.10;;;6.20;99.90;;;;;;4170944;28;20064;-83
2023/01/15 03:23:14;;;;;;;3.47;0.98;;;6.20;99.90;;;;;;4197947;28;20050;-83
2023/01/15 03:25:20;;;;;;;9.88;1.63;;;6.30;99.90;;;;;;4198013;28;20048;-83
2023/01/15 03:27:21;;;;;;;12.73;1.45;;;6.30;99.90;;;;;;4197104;28;20141;-83
2023/01/15 03:29:26;;;;;;;9.30;0.85;;;6.50;99.90;;;;;;4197454;28;20041;-82
2023/01/15 03:31:28;;;;;;;11.65;1.52;;;6.30;99.90;;;;;;4181654;28;20493;-82
2023/01/15 03:33:29;;;;;;;10.80;1.52;;;6.60;99.90;;;;;;4181847;28;20045;-82
2023/01/15 03:35:52;;;;;;;13.90;2.03;;;6.20;99.90;;;;;;4179946;28;20044;-82
2023/01/15 03:37:53;;;;;;;8.27;1.77;;;6.30;99.90;;;;;;4181571;28;20102;-82
2023/01/15 03:39:56;;;;;;;8.77;1.10;;;6.60;99.90;;;;;;4180867;28;20119;-83
2023/01/15 03:42:30;;;;;;;8.73;0.90;;;6.20;99.90;;;;;;4181380;28;20067;-83
2023/01/15 03:45:05;;;;;;;5.85;1.20;;;6.20;99.90;;;;;;4181158;28;20088;-83
2023/01/15 03:47:16;;;;;;;15.82;1.80;;;6.20;99.90;;;;;;4195968;28;20047;-83
2023/01/15 03:49:38;;;;;;;14.95;1.48;;;6.20;99.90;;;;;;4197018;28;20041;-82
2023/01/15 03:51:44;;;;;;;8.88;1.65;;;6.20;99.90;;;;;;4197935;28;20044;-82
2023/01/15 03:53:52;;;;;;;14.60;2.38;;;6.20;99.90;;;;;;4198052;28;20114;-83
2023/01/15 03:56:18;;;;;;;5.05;1.25;;;6.20;99.90;;;;;;4198138;28;20052;-84
2023/01/15 03:58:26;;;;;;;8.82;1.60;;;6.20;99.90;;;;;;4190646;28;20519;-82
2023/01/15 04:00:39;;;;;;;11.02;1.67;;;6.20;99.90;;;;;;4196714;28;20047;-82
2023/01/15 04:02:42;;;;;;;7.85;1.17;;;6.20;99.90;;;;;;4198011;28;20047;-82
2023/01/15 04:04:44;;;;;;;7.60;1.88;;;6.20;99.90;;;;;;4198634;28;20084;-82
2023/01/15 04:06:45;;;;;;;9.82;1.10;;;6.40;99.90;;;;;;4197836;28;20554;-82
2023/01/15 04:08:47;;;;;;;8.32;1.42;;;6.50;99.90;;;;;;4196835;28;20135;-82
2023/01/15 04:10:55;;;;;;;9.65;1.15;;;6.40;99.90;;;;;;4197851;28;20084;-82
2023/01/15 04:12:55;;;;;;;6.72;1.00;;;6.20;99.90;;;;;;4197973;28;20097;-82
2023/01/15 04:14:56;;;;;;;20.33;1.55;;;6.20;99.90;;;;;;4195680;28;20044;-82
2023/01/15 04:16:58;;;;;;;8.35;1.25;;;6.30;99.90;;;;;;4197870;28;20393;-82
2023/01/15 04:18:59;;;;;;;13.77;2.35;;;5.70;99.90;;;;;;4196295;28;20131;-82
2023/01/15 04:21:00;;;;;;;10.52;1.15;;;6.10;99.90;;;;;;4196210;28;20134;-82
2023/01/15 04:23:01;;;;;;;18.75;2.13;;;6.10;99.90;;;;;;4195914;28;20040;-82
2023/01/15 04:25:03;;;;;;;7.82;1.65;;;6.40;99.90;;;;;;4196394;28;20048;-82
2023/01/15 04:27:04;;;;;;;6.68;1.02;;;6.10;99.90;;;;;;4197617;28;20400;-81
2023/01/15 04:29:04;;;;;;;7.68;1.85;;;6.10;99.90;;;;;;4197779;28;20066;-82
2023/01/15 04:31:05;;;;;;;9.82;1.02;;;6.90;99.90;;;;;;4195782;28;20131;-82
2023/01/15 04:33:06;;;;;;;11.40;1.85;;;6.60;99.90;;;;;;4197563;28;20076;-82
2023/01/15 04:35:06;;;;;;;6.75;1.70;;;6.00;99.90;;;;;;4197814;28;20393;-82
2023/01/15 04:37:07;;;;;;;8.40;1.45;;;6.10;99.90;;;;;;4197619;28;20110;-82
2023/01/15 04:39:08;;;;;;;7.70;1.95;;;6.30;99.90;;;;;;4196521;28;20049;-81
2023/01/15 04:45:49;;;;;;;4.55;0.80;;;6.20;99.90;;;;;;4197379;28;20124;-82
2023/01/15 04:47:49;;;;;;;6.25;0.90;;;6.00;99.90;;;;;;4196983;28;20106;-82
2023/01/15 04:49:50;;;;;;;10.73;0.98;;;6.20;99.90;;;;;;4200840;28;20055;-82
2023/01/15 04:51:51;;;;;;;6.70;2.05;;;6.50;99.90;;;;;;4199011;28;20524;-82
2023/01/15 04:53:53;;;;;;;8.48;1.30;;;6.00;99.90;;;;;;4199229;28;20075;-82
2023/01/15 04:56:03;;;;;;;10.63;1.85;;;6.00;99.90;;;;;;4200187;28;20052;-82
2023/01/15 04:58:03;;;;;;;8.00;1.23;;;6.00;99.90;;;;;;4200354;28;20037;-81
2023/01/15 05:00:05;;;;;;;6.70;1.08;;;6.20;99.90;;;;;;4201044;28;20215;-82
2023/01/15 05:02:07;;;;;;;7.65;0.70;;;6.00;99.90;;;;;;4198889;28;20049;-82
2023/01/15 05:04:09;;;;;;;4.55;1.15;;;6.00;99.90;;;;;;4200635;28;20040;-82
2023/01/15 05:06:10;;;;;;;11.23;1.88;;;6.50;99.90;;;;;;4200152;28;20544;-83
2023/01/15 05:08:10;;;;;;;8.98;2.63;;;6.30;99.90;;;;;;4199997;28;20082;-82
2023/01/15 05:10:12;;;;;;;8.75;1.67;;;6.10;99.90;;;;;;4199840;28;20047;-82
2023/01/15 05:12:14;;;;;;;13.05;1.58;;;6.30;99.90;;;;;;4198454;28;20600;-82
2023/01/15 05:14:14;;;;;;;17.00;2.53;;;6.00;99.90;;;;;;4200042;28;20048;-82
2023/01/15 05:16:27;;;;;;;11.63;1.48;;;6.00;99.90;;;;;;4197677;28;20147;-82
2023/01/15 05:18:29;;;;;;;11.52;1.58;;;5.90;99.90;;;;;;4199902;28;20063;-82
2023/01/15 05:20:29;;;;;;;8.43;1.50;;;6.10;99.90;;;;;;4199583;28;20041;-82
2023/01/15 05:22:31;;;;;;;11.73;1.73;;;5.90;99.90;;;;;;4198568;28;20044;-82
2023/01/15 05:24:32;;;;;;;7.57;0.88;;;5.80;99.90;;;;;;4199442;28;20050;-81
2023/01/15 05:26:35;;;;;;;13.00;1.05;;;5.70;99.90;;;;;;4199753;28;20068;-81
2023/01/15 05:28:35;;;;;;;9.55;1.52;;;6.20;99.90;;;;;;4199476;28;20052;-82
2023/01/15 05:30:36;;;;;;;10.02;1.45;;;5.80;99.90;;;;;;4199617;28;20477;-81
2023/01/15 05:32:37;;;;;;;9.18;1.17;;;5.80;99.90;;;;;;4199796;28;20040;-82
2023/01/15 05:34:37;;;;;;;8.73;1.15;;;5.70;99.90;;;;;;4197693;28;20110;-82
2023/01/15 05:36:38;;;;;;;7.63;1.15;;;6.40;99.90;;;;;;4198264;28;20098;-82
2023/01/15 05:38:39;;;;;;;7.10;1.67;;;5.80;99.90;;;;;;4197991;28;20065;-82
2023/01/15 05:40:41;;;;;;;9.23;1.60;;;6.20;99.90;;;;;;4199668;28;20037;-83
2023/01/15 05:42:41;;;;;;;12.48;1.88;;;6.40;99.90;;;;;;4199731;28;20384;-83
2023/01/15 05:44:42;;;;;;;8.68;1.42;;;6.30;99.90;;;;;;4199385;28;20052;-83
2023/01/15 05:46:45;;;;;;;11.10;1.30;;;6.40;99.90;;;;;;4199291;28;20080;-83
2023/01/15 05:48:47;;;;;;;16.30;2.28;;;6.10;99.90;;;;;;4199099;28;20050;-83
2023/01/15 05:50:47;;;;;;;11.60;1.60;;;6.20;99.90;;;;;;4197840;28;20067;-82
2023/01/15 05:52:48;;;;;;;6.65;1.27;;;5.70;99.90;;;;;;4200460;28;20504;-83
2023/01/15 05:54:49;;;;;;;12.23;2.90;;;6.20;99.90;;;;;;4198247;28;20052;-83
2023/01/15 05:56:51;;;;;;;8.38;1.67;;;6.00;99.90;;;;;;4201545;28;20048;-81
2023/01/15 05:58:52;;;;;;;12.27;0.98;;;6.00;99.90;;;;;;4200620;28;20505;-82
2023/01/15 06:00:53;;;;;;;5.70;1.27;;;5.40;99.90;;;;;;4200116;28;20122;-82
2023/01/15 06:02:55;;;;;;;5.03;0.82;;;6.20;99.90;;;;;;4199860;28;20481;-82
2023/01/15 06:04:57;;;;;;;9.98;1.15;;;6.30;99.90;;;;;;4199976;28;20110;-82
2023/01/15 06:06:58;;;;;;;5.60;1.45;;;5.90;99.90;;;;;;4200633;28;20051;-82
2023/01/15 06:08:58;;;;;;;6.57;1.00;;;6.40;99.90;;;;;;4199443;28;20119;-82
2023/01/15 06:10:59;;;;;;;10.23;1.23;;;5.80;99.90;;;;;;4199866;28;20504;-82
2023/01/15 06:13:00;;;;;;;10.77;1.88;;;5.90;99.90;;;;;;4199411;28;20044;-82
2023/01/15 06:15:00;;;;;;;9.18;1.08;;;5.70;99.90;;;;;;4199066;28;20120;-82
2023/01/15 06:17:01;;;;;;;6.90;1.63;;;6.00;99.90;;;;;;4197170;28;20060;-83
2023/01/15 06:19:04;;;;;;;7.25;1.95;;;5.50;99.90;;;;;;4197341;28;20488;-83
2023/01/15 06:21:07;;;;;;;10.15;1.10;;;6.20;99.90;;;;;;4199372;28;20053;-83
2023/01/15 06:23:08;;;;;;;6.72;2.15;;;5.60;99.90;;;;;;4185603;28;20787;-83
2023/01/15 06:25:09;;;;;;;13.55;1.73;;;5.90;99.90;;;;;;4183931;28;20051;-83
2023/01/15 06:27:10;;;;;;;8.55;1.23;;;5.90;99.90;;;;;;4183901;28;20045;-83
2023/01/15 06:29:12;;;;;;;8.73;1.73;;;5.40;99.90;;;;;;4182750;28;20072;-83
2023/01/15 06:31:16;;;;;;;13.38;2.03;;;5.50;99.90;;;;;;4181555;28;20091;-83
2023/01/15 06:33:17;;;;;;;13.00;1.52;;;6.00;99.90;;;;;;4187540;28;20523;-82
2023/01/15 06:35:18;;;;;;;10.48;1.42;;;5.60;99.90;;;;;;4199792;28;20045;-83
2023/01/15 06:37:19;;;;;;;6.03;1.00;;;5.60;99.90;;;;;;4199364;28;20044;-82
2023/01/15 06:39:20;;;;;;;5.40;1.02;;;5.60;99.90;;;;;;4197797;28;20088;-82
2023/01/15 06:48:24;;;;;;;6.47;1.70;;;5.50;99.90;;;;;;4198918;28;20048;-83
2023/01/15 06:50:24;;;;;;;8.32;0.90;;;5.90;99.90;;;;;;4199224;28;20042;-83
2023/01/15 06:52:27;;;;;;;4.57;0.95;;;5.60;99.90;;;;;;4199640;28;20075;-83
2023/01/15 06:54:28;;;;;;;9.50;0.98;;;5.40;99.90;;;;;;4198566;28;20049;-83
2023/01/15 06:56:29;;;;;;;3.78;1.38;;;5.80;99.90;;;;;;4199165;28;20053;-83
2023/01/15 06:58:29;;;;;;;9.80;1.52;;;5.60;99.90;;;;;;4198908;28;20049;-83
2023/01/15 07:00:31;;;;;;;7.15;1.13;;;5.60;99.90;;;;;;4198492;28;20119;-83
2023/01/15 07:02:33;;;;;;;7.07;0.88;;;6.00;99.90;;;;;;4199123;28;20041;-83
2023/01/15 07:04:34;;;;;;;3.85;0.73;;;5.90;99.90;;;;;;4199344;28;20040;-83
2023/01/15 07:06:34;;;;;;;3.55;0.73;;;6.40;99.90;;;;;;4198989;28;20059;-83
2023/01/15 07:08:37;;;;;;;6.25;1.00;;;5.50;99.90;;;;;;4198678;28;20405;-83
2023/01/15 07:10:39;;;;;;;4.70;1.55;;;5.50;99.90;;;;;;4197552;28;20087;-83
2023/01/15 07:12:41;;;;;;;8.27;2.38;;;6.20;99.90;;;;;;4198685;28;20040;-83
2023/01/15 07:14:43;;;;;;;5.22;1.13;;;5.70;99.90;;;;;;4198706;28;20041;-83
2023/01/15 07:16:44;;;;;;;5.20;1.30;;;5.70;99.90;;;;;;4199108;28;20086;-83
2023/01/15 07:18:45;;;;;;;7.43;1.33;;;5.60;99.90;;;;;;4198413;28;20433;-83
2023/01/15 07:20:46;;;;;;;17.15;2.13;;;6.00;99.90;;;;;;4198828;28;20052;-82
2023/01/15 07:22:53;;;;;;;10.48;1.77;;;5.60;99.90;;;;;;4198748;28;20157;-83
2023/01/15 07:24:55;;;;;;;6.32;0.75;;;5.60;99.90;;;;;;4198641;28;20048;-83
2023/01/15 07:26:56;;;;;;;9.80;2.05;;;5.40;99.90;;;;;;4197074;28;20051;-83
2023/01/15 07:28:57;;;;;;;11.77;1.40;;;5.70;99.90;;;;;;4198700;28;20045;-83
2023/01/15 07:30:58;;;;;;;7.38;1.98;;;5.70;99.90;;;;;;4197495;28;20461;-83
2023/01/15 07:32:59;;;;;;;8.75;1.65;;;5.50;99.90;;;;;;4197162;28;20051;-83
2023/01/15 07:34:59;;;;;;;5.30;0.93;;;6.10;99.90;;;;;;4198364;28;20132;-83
2023/01/15 07:37:00;;;;;;;4.50;1.35;;;5.80;99.90;;;;;;4196769;28;20052;-83
2023/01/15 07:39:06;;;;;;;11.57;1.55;;;5.50;99.90;;;;;;4181108;28;20072;-83
2023/01/15 07:49:44;;;;;;;8.07;1.05;;;5.40;99.90;;;;;;4198849;28;20393;-83
2023/01/15 07:50:40;;;;;;;5.95;1.33;;;5.70;99.90;;;;;;4179163;28;20532;-83
2023/01/15 07:52:40;;;;;;;4.68;0.70;;;5.50;99.90;;;;;;4181425;28;20107;-82
2023/01/15 07:54:41;;;;;;;8.15;1.58;;;6.20;99.90;;;;;;4181706;28;20414;-83
2023/01/15 07:56:42;;;;;;;10.85;1.33;;;5.60;99.90;;;;;;4181295;28;20049;-83
2023/01/15 07:58:48;;;;;;;9.23;1.10;;;5.70;99.90;;;;;;4181162;28;20347;-82
2023/01/15 08:00:48;;;;;;;3.13;0.95;;;5.90;99.90;;;;;;4187588;28;20050;-82
2023/01/15 08:02:49;;;;;;;4.85;0.70;;;6.00;99.90;;;;;;4198518;28;20083;-82
2023/01/15 08:04:50;;;;;;;2.65;0.75;;;5.40;99.90;;;;;;4198526;28;20552;-82
2023/01/15 08:06:51;;;;;;;11.30;1.73;;;5.40;99.90;;;;;;4198738;28;20048;-82
2023/01/15 08:08:52;;;;;;;6.45;0.73;;;5.50;99.90;;;;;;4198299;28;20079;-82
2023/01/15 08:15:38;;;;;;;5.18;0.77;;;5.60;99.90;;;;;;4197987;28;20049;-82
2023/01/15 08:17:42;;;;;;;7.95;1.10;;;5.70;99.90;;;;;;4197858;28;20051;-82
2023/01/15 08:19:43;;;;;;;9.43;1.42;;;6.00;99.90;;;;;;4198223;28;20040;-82
2023/01/15 08:21:43;;;;;;;9.95;1.15;;;5.70;99.90;;;;;;4198007;28;20048;-82
2023/01/15 08:23:45;;;;;;;4.05;0.80;;;5.80;99.90;;;;;;4200509;28;20480;-82
2023/01/15 08:25:46;;;;;;;9.27;0.93;;;5.70;99.90;;;;;;4202161;28;20823;-82
2023/01/15 08:27:46;;;;;;;14.55;1.50;;;6.40;99.90;;;;;;4199396;28;20102;-82
2023/01/15 08:29:47;;;;;;;8.45;0.93;;;5.80;99.90;;;;;;4202372;28;20048;-82
2023/01/15 08:31:48;;;;;;;3.80;0.80;;;5.70;99.90;;;;;;4201204;28;20052;-82
2023/01/15 08:33:49;;;;;;;10.48;1.33;;;5.70;99.90;;;;;;4184475;28;20110;-81
2023/01/15 08:35:49;;;;;;;6.30;0.65;;;6.00;99.90;;;;;;4201616;28;20488;-82
2023/01/15 08:37:50;;;;;;;7.00;1.58;;;5.70;99.90;;;;;;4201718;28;20052;-82
2023/01/15 08:39:52;;;;;;;12.63;0.90;;;5.70;99.90;;;;;;4186153;28;20052;-82
2023/01/15 08:41:54;;;;;;;6.38;1.50;;;5.70;99.90;;;;;;4185498;28;20049;-80
2023/01/15 08:43:56;;;;;;;7.20;1.45;;;5.60;99.90;;;;;;4184555;28;20088;-82
2023/01/15 08:45:59;;;;;;;2.97;0.50;;;5.70;99.90;;;;;;4185524;28;20532;-82
2023/01/15 08:48:00;;;;;;;8.98;0.85;;;6.00;99.90;;;;;;4184549;28;20047;-82
2023/01/15 08:50:03;;;;;;;8.57;1.02;;;5.70;99.90;;;;;;4183925;28;20040;-82
2023/01/15 08:52:04;;;;;;;4.70;1.10;;;5.80;99.90;;;;;;4184683;28;20045;-81
2023/01/15 08:54:05;;;;;;;13.90;2.45;;;;;;;;;;4196784;28;20135;-81
2023/01/15 08:56:16;;;;;;;12.57;2.25;;;5.70;99.90;;;;;;4201422;28;20052;-82
2023/01/15 08:58:18;;;;;;;10.82;1.67;;;5.70;99.90;;;;;;4199498;28;20305;-84
2023/01/15 09:00:20;;;;;;;9.02;0.93;;;5.70;99.90;;;;;;4193938;28;20040;-82
2023/01/15 09:02:21;;;;;;;7.93;0.57;;;5.70;99.90;;;;;;4203379;28;20048;-82
2023/01/15 09:04:21;;;;;;;5.93;1.60;;;5.60;99.90;;;;;;4202135;28;20047;-83
2023/01/15 09:06:23;;;;;;;8.10;1.42;;;6.10;99.90;;;;;;4197791;28;20045;-82
2023/01/15 09:08:26;;;;;;;6.40;0.55;;;5.40;99.90;;;;;;4197175;28;20041;-82
2023/01/15 09:10:27;;;;;;;5.43;0.60;;;5.80;99.90;;;;;;4185084;28;20049;-82
2023/01/15 09:12:29;;;;;;;8.00;0.88;;;5.20;99.90;;;;;;4189907;28;20043;-82
2023/01/15 09:14:30;;;;;;;7.07;1.13;;;5.40;99.90;;;;;;4201023;28;20040;-83
2023/01/15 09:16:31;;;;;;;7.63;1.13;;;5.20;99.90;;;;;;4209175;28;20067;-83
2023/01/15 09:18:34;;;;;;;6.22;0.70;;;5.30;99.90;;;;;;4185110;28;20049;-83
2023/01/15 09:20:35;;;;;;;4.30;1.10;;;5.30;99.90;;;;;;4185348;28;20071;-83
2023/01/15 09:22:36;;;;;;;13.57;1.58;;;5.20;99.90;;;;;;4184994;28;20045;-83
2023/01/15 09:24:37;;;;;;;6.57;1.45;;;5.20;99.90;;;;;;4184469;28;20072;-83
2023/01/15 09:26:38;;;;;;;7.10;1.10;;;5.20;99.90;;;;;;4184720;28;20045;-83
2023/01/15 09:28:39;;;;;;;2.38;0.90;;;5.20;99.90;;;;;;4184821;28;20041;-84
2023/01/15 09:30:41;;;;;;;6.78;0.73;;;5.30;99.90;;;;;;4185087;28;20044;-83
2023/01/15 09:32:42;;;;;;;5.03;1.13;;;5.30;99.90;;;;;;4184384;28;20118;-83
2023/01/15 09:34:43;;;;;;;6.13;1.13;;;5.80;99.90;;;;;;4184494;28;20050;-83
2023/01/15 09:36:45;;;;;;;4.32;0.70;;;5.50;99.90;;;;;;4184863;28;20041;-83
2023/01/15 09:38:47;;;;;;;5.65;0.85;;;5.50;99.90;;;;;;4184457;28;20116;-82
2023/01/15 09:40:58;;;;;;;6.50;0.82;;;5.50;99.90;;;;;;4167189;28;20041;-82
2023/01/15 09:43:05;;;;;;;9.40;1.05;;;5.60;99.90;;;;;;4184014;28;20485;-83
2023/01/15 09:45:24;;;;;;;16.58;2.33;;;5.90;99.90;;;;;;4182001;28;20083;-82
2023/01/15 09:47:29;;;;;;;;;;;5.60;99.90;;;;;;4182886;28;20526;-83
2023/01/15 09:50:08;;;;;;;4.22;1.42;;;5.60;99.90;;;;;;4184114;28;19920;-82
2023/01/15 09:52:18;;;;;;;2.75;0.60;;;5.60;99.90;;;;;;4183841;28;20057;-82
2023/01/15 09:54:53;;;;;;;10.00;2.38;;;6.00;99.90;;;;;;4183102;28;20044;-82
2023/01/15 09:56:54;;;;;;;5.90;1.35;;;6.50;99.90;;;;;;4173273;28;20048;-82
2023/01/15 09:58:57;;;;;;;8.40;2.25;;;7.10;99.90;;;;;;4190462;28;20546;-82
2023/01/15 10:00:58;;;;;;;8.65;1.75;;;7.60;99.90;;;;;;4199731;28;20528;-83
2023/01/15 10:03:17;;;;;;;6.95;0.90;;;8.00;99.90;;;;;;4199850;28;20055;-83
2023/01/15 10:05:27;;;;;;;6.55;1.70;;;8.20;99.90;;;;;;4198450;28;20122;-82
2023/01/15 10:07:42;;;;;;;1.83;0.93;;;7.80;99.90;;;;;;4199817;28;20052;-83
2023/01/15 10:09:46;;;;;;;5.55;0.43;;;7.50;99.90;;;;;;4199688;28;20045;-83
2023/01/15 10:15:01;;;;;;;9.70;1.73;;;7.70;99.90;;;;;;4198764;28;20488;-83
2023/01/15 10:17:01;;;;;;;10.63;1.55;;;7.60;99.90;;;;;;4169485;28;20057;-83
2023/01/15 10:19:02;;;;;;;6.45;0.93;;;7.60;99.90;;;;;;4184134;28;20110;-83
2023/01/15 10:21:23;;;;;;;11.32;1.10;;;7.20;99.90;;;;;;4189664;28;20045;-83
2023/01/15 10:24:01;;;;;;;4.53;0.73;;;7.40;99.90;;;;;;4198656;28;20455;-83
2023/01/15 10:26:30;;;;;;;9.43;1.38;;;;;;;;;;4200221;28;20546;-83
2023/01/15 10:28:54;;;;;;;4.70;1.20;;;7.80;99.90;;;;;;4199735;28;20056;-83
2023/01/15 10:31:00;;;;;;;6.45;1.48;;;7.60;99.90;;;;;;4199824;28;20131;-83
2023/01/15 10:33:25;;;;;;;10.38;0.80;;;7.60;99.90;;;;;;4195418;28;20044;-83
2023/01/15 10:35:40;;;;;;;9.32;0.95;;;7.80;99.90;;;;;;4175413;28;20056;-83
2023/01/15 10:37:44;;;;;;;6.38;1.00;;;7.60;99.90;;;;;;4182914;28;20060;-83
2023/01/15 10:40:29;;;;;;;13.93;1.10;;;7.60;99.90;;;;;;4183476;28;20045;-83
2023/01/15 10:42:41;;;;;;;5.93;0.85;;;7.80;99.90;;;;;;4183268;28;20048;-83
2023/01/15 10:45:17;;;;;;;14.13;1.75;;;8.00;99.90;;;;;;4181848;28;20521;-83
2023/01/15 10:47:25;;;;;;;4.65;1.58;;;8.10;99.90;;;;;;4181822;28;20465;-83
2023/01/15 10:49:29;;;;;;;6.47;1.15;;;7.90;99.90;;;;;;4181809;28;20120;-83
2023/01/15 10:51:55;;;;;;;4.25;0.55;;;7.90;99.90;;;;;;4180328;28;20112;-83
2023/01/15 10:54:09;;;;;;;8.10;1.27;;;8.00;99.90;;;;;;4190712;28;20128;-83
2023/01/15 10:56:18;;;;;;;8.77;1.15;;;8.00;99.90;;;;;;4198025;28;20481;-88
2023/01/15 10:58:37;;;;;;;9.63;0.75;;;8.00;99.90;;;;;;4179475;28;20041;-82
2023/01/15 11:00:39;;;;;;;11.45;1.48;;;8.30;99.90;;;;;;4197358;28;20044;-82
2023/01/15 11:02:44;;;;;;;11.35;1.63;;;8.10;99.90;;;;;;4197227;28;20582;-82
2023/01/15 11:04:44;;;;;;;5.88;0.80;;;8.10;99.90;;;;;;4198622;28;20053;-82
2023/01/15 11:06:45;;;;;;;7.85;0.80;;;8.00;99.90;;;;;;4198185;28;20452;-81
2023/01/15 11:08:56;;;;;;;9.30;1.15;;;8.00;99.90;;;;;;4180400;28;20061;-81
2023/01/15 11:11:12;;;;;;;7.88;1.30;;;8.10;99.90;;;;;;4197677;28;20122;-81
2023/01/15 11:20:48;;;;;;;5.30;0.60;;;8.30;99.90;;;;;;4197893;28;20048;-89
2023/01/15 11:22:49;;;;;;;7.38;1.45;;;8.20;99.90;;;;;;4180827;28;20122;-82
2023/01/15 11:24:53;;;;;;;5.45;1.25;;;8.10;99.90;;;;;;4197453;28;20083;-82
2023/01/15 11:26:54;;;;;;;3.80;0.82;;;7.90;99.90;;;;;;4198008;28;20044;-82
2023/01/15 11:28:57;;;;;;;8.88;1.45;;;7.90;99.90;;;;;;4198671;28;20044;-82
2023/01/15 11:30:58;;;;;;;9.48;1.60;;;7.80;99.90;;;;;;4195104;28;20059;-80
2023/01/15 11:33:03;;;;;;;6.30;0.95;;;7.80;99.90;;;;;;4200360;28;20524;-81
2023/01/15 11:35:07;;;;;;;7.68;1.05;;;7.80;99.90;;;;;;4201127;28;20060;-82